CST,Max TemperatureF,Mean TemperatureF,Min TemperatureF,Max Dew PointF,MeanDew PointF,Min DewpointF,Max Humidity, Mean Humidity, Min Humidity, Max Sea Level PressureIn, Mean Sea Level PressureIn, Min Sea Level PressureIn, Max VisibilityMiles, Mean VisibilityMiles, Min VisibilityMiles, Max Wind SpeedMPH, Mean Wind SpeedMPH, Max Gust SpeedMPH,PrecipitationIn, CloudCover, Events, WindDirDegrees
2014-2-1,27,23,19,25,21,17,94,91,86,30.12,29.96,29.85,10,5,1,14,9,,0.13,7,Snow,11
2014-2-2,20,8,-6,17,4,-11,88,82,75,30.33,30.26,30.12,10,10,7,15,9,,0.00,1,,301
2014-2-3,15,2,-11,4,-4,-16,84,74,59,30.40,30.36,30.32,10,10,5,8,2,,0.00,0,,301
2014-2-4,22,12,2,20,9,-3,92,78,63,30.40,30.29,30.07,10,7,1,16,4,,0.00,6,Snow,54
2014-2-5,22,13,3,20,13,-2,92,84,72,30.48,30.26,30.03,10,9,1,22,16,28,0.00,6,Snow,333
2014-2-6,5,0,-5,-3,-7,-10,80,73,64,30.51,30.45,30.41,10,10,10,17,11,21,0.00,0,Snow,272
2014-2-7,14,4,-5,2,-3,-11,79,69,54,30.43,30.37,30.33,10,10,10,16,8,,0.00,2,,222
2014-2-8,17,13,9,16,10,2,93,84,72,30.32,30.20,30.12,10,6,1,9,4,,0.01,8,Snow,160
2014-2-9,17,8,-3,15,6,-9,91,81,73,30.33,30.21,30.11,10,8,3,15,7,21,0.00,2,Snow,292
2014-2-10,5,-2,-10,-4,-9,-15,80,73,63,30.49,30.42,30.33,10,10,7,13,8,,0.00,0,,294
2014-2-11,12,-2,-16,-1,-9,-22,83,71,54,30.54,30.46,30.36,10,10,5,10,1,,0.00,0,,166
2014-2-12,22,10,-3,14,5,-7,85,76,64,30.36,30.16,30.00,10,10,7,9,2,,0.00,5,,150
2014-2-13,35,21,7,30,14,2,83,74,56,30.00,29.75,29.57,10,9,2,24,8,37,0.00,3,,218
2014-2-14,18,13,7,11,8,2,82,77,71,29.99,29.81,29.68,10,10,4,18,11,22,0.00,2,Snow,302
2014-2-15,19,9,-1,17,6,-5,89,78,64,30.11,30.03,29.94,10,9,1,15,9,,0.01,3,Snow,212
2014-2-16,23,20,16,17,15,13,89,81,68,30.26,30.14,29.94,10,8,5,16,6,17,0.01,3,,320
2014-2-17,35,28,21,31,23,16,92,85,77,30.21,29.91,29.71,10,5,0,26,15,34,0.25,7,Snow-Thunderstorm,166
2014-2-18,44,33,22,31,27,20,91,74,57,29.94,29.78,29.65,10,10,10,24,12,28,0.02,0,,204
2014-2-19,41,36,30,31,29,27,89,79,62,29.98,29.89,29.68,10,10,10,15,10,20,0.00,1,,236
2014-2-20,47,40,34,47,35,30,99,91,77,29.87,29.50,29.20,10,5,0,40,14,53,1.46,8,Fog-Rain-Thunderstorm,127
2014-2-21,36,32,27,31,23,16,87,69,50,29.86,29.70,29.41,10,9,1,38,25,50,0.00,4,Snow,258
2014-2-22,33,28,21,21,19,15,81,67,54,30.08,30.01,29.87,10,10,10,14,8,,0.00,3,,283
2014-2-23,27,22,17,16,11,8,75,65,57,30.28,30.23,30.11,10,10,10,16,12,23,0.00,0,,301
2014-2-24,25,20,14,13,10,8,77,66,51,30.33,30.28,30.24,10,10,10,17,11,23,0.00,2,,289
2014-2-25,20,14,7,14,6,-1,88,71,54,30.27,30.25,30.21,10,9,2,25,13,33,0.00,2,Snow,296
2014-2-26,21,10,0,10,0,-7,75,62,45,30.30,30.06,29.72,10,10,10,22,15,31,0.00,1,,265
2014-2-27,21,12,4,10,-5,-9,69,55,44,30.19,30.06,29.73,10,10,10,29,16,39,0.00,0,,316
2014-2-28,34,19,4,23,10,-5,80,65,49,30.18,30.06,29.94,10,10,10,23,7,25,0.00,1,,150